Hauptseite
METAR-TAF:

METAR-TAF

Flughäfen :

Flughafen Leipzig/Halle

Leipzig, Deutschland

Breite: 51-25N, Länge: 012-14E, Höhe: 144 m

Beobachtung

Neuester Wetterbericht von vor 40 Minuten, um 01:20 UTC
Wind 7 kt aus Südwest
Temperatur 4°C
Luftfeuchtigkeit 75%
Luftdruck 1018 hPa
Sichtweite 10 km oder mehr
keine Wolken unter 1500 m und keine Kumulonimbus oder Gewitterwolken

METAR: EDDP 080120Z 22007KT CAVOK 04/00 Q1018 NOSIG

Zeit: 04:00 (02:00 UTC)

Prognose

Neuester Wetterbericht von vor 3 Stunden und 0 Minuten, um 23:00 UTC
Gültige Prognose vom 08 um 00 UTC bis 08 um 24 UTC
Wind 7 kt aus Südwest
Sichtweite 10 km oder mehr
keine Wolken unter 1500 m und keine Kumulonimbus oder Gewitterwolken
Übergehend zu
vom 08 um 16 UTC bis 08 um 19 UTC
Wind 7 kt aus Süd/Südost

TAF: EDDP 072300Z 0800/0824 23007KT CAVOK BECMG 0816/0819 15007KT

Wetterbeobachtungen und Prognosen von mehr als 4000 Flughäfen (METAR und TAF Bericht).

Die verfügbaren Stationen werden durch gelbe und rote Markierungen auf der Karte dargestellt.

Führen Sie die Maus auf sie, um den Namen der Station zu sehen.

Darauf klicken, um die Beobachtung von Wetterbeobachtungen und Prognosen zu sehen.

Um die Karte zu ändern : klicken Sie auf den grünen Tasten mit einem schwarzen Kreuz Zum Vergrößern, auf den grünen Button mit einem Gedankenstrich zu verkleinern, oder auf die grünen Pfeile für benachbarte Karten.


METAR-TAF: